createdAt,value
2022-09-19T00:01:42.404Z,95971.34
2022-09-19T00:05:55.539Z,95973.66
2022-09-19T00:10:09.328Z,95967.09
2022-09-19T00:14:25.396Z,95973.63
2022-09-19T00:18:40.115Z,95972.59
2022-09-19T00:23:12.975Z,95967.38
2022-09-19T00:27:28.000Z,95971.22
2022-09-19T00:31:41.085Z,95966.75
2022-09-19T00:35:56.347Z,95970.75
2022-09-19T00:40:10.117Z,95970.91
2022-09-19T00:44:23.122Z,95972.91
2022-09-19T00:48:37.215Z,95965.06
2022-09-19T00:53:00.498Z,95966.91
2022-09-19T00:57:16.080Z,95980.09
2022-09-19T01:01:29.882Z,96000.44
2022-09-19T01:06:06.830Z,96039.53
2022-09-19T01:10:36.759Z,96037.00
2022-09-19T01:15:11.259Z,96039.94
2022-09-19T01:20:01.118Z,96041.69
2022-09-19T01:24:29.481Z,96034.38
2022-09-19T01:28:50.401Z,96032.81
2022-09-19T01:33:20.856Z,96042.09
2022-09-19T01:37:49.717Z,96035.41
2022-09-19T01:42:03.197Z,96036.97
2022-09-19T01:46:29.388Z,96047.03
2022-09-19T01:51:04.382Z,96046.41
2022-09-19T01:55:23.450Z,96053.41
2022-09-19T01:59:55.324Z,96084.81
2022-09-19T02:04:21.857Z,96062.94
2022-09-19T02:08:44.531Z,96052.53
2022-09-19T02:13:01.351Z,96055.28
2022-09-19T02:17:17.696Z,96065.13
2022-09-19T02:21:40.628Z,96065.38
2022-09-19T02:25:55.487Z,96060.97
2022-09-19T02:30:11.551Z,96074.31
2022-09-19T02:34:26.251Z,96087.91
2022-09-19T02:39:01.060Z,96073.22
2022-09-19T02:43:28.174Z,96074.16
2022-09-19T02:48:05.624Z,96072.63
2022-09-19T02:52:28.406Z,96078.88
2022-09-19T02:56:45.078Z,96088.22
2022-09-19T03:01:26.225Z,96105.03
2022-09-19T03:05:40.303Z,96089.28
2022-09-19T03:10:10.848Z,96100.94
2022-09-19T03:14:24.695Z,96098.53
2022-09-19T03:18:39.962Z,96100.19
2022-09-19T03:22:55.413Z,96100.97
2022-09-19T03:27:08.732Z,96120.09
2022-09-19T03:31:23.607Z,96132.06
2022-09-19T03:35:38.213Z,96135.56
2022-09-19T03:39:51.893Z,96133.16
2022-09-19T03:44:05.428Z,96133.81
2022-09-19T03:48:18.612Z,96141.69
2022-09-19T03:52:31.824Z,96133.25
2022-09-19T03:56:45.013Z,96139.06
2022-09-19T04:00:59.461Z,96145.00
2022-09-19T04:05:14.735Z,96143.91
2022-09-19T04:09:27.955Z,96151.34
2022-09-19T04:13:41.363Z,96159.59
2022-09-19T04:17:54.672Z,96163.66
2022-09-19T04:22:08.151Z,96169.28
2022-09-19T04:26:23.203Z,96166.19
2022-09-19T04:30:37.613Z,96177.94
2022-09-19T04:34:51.195Z,96183.41
2022-09-19T04:39:04.589Z,96192.13
2022-09-19T04:43:20.704Z,96201.63
2022-09-19T04:47:34.926Z,96196.38
2022-09-19T04:51:47.948Z,96199.66
2022-09-19T04:56:01.137Z,96207.00
2022-09-19T05:00:14.613Z,96205.59
2022-09-19T05:04:27.634Z,96221.75
2022-09-19T05:08:42.222Z,96227.25
2022-09-19T05:12:55.259Z,96215.78
2022-09-19T05:17:10.430Z,96239.31
2022-09-19T05:21:23.424Z,96237.22
2022-09-19T05:25:42.792Z,96226.78
2022-09-19T05:29:57.319Z,96242.59
2022-09-19T05:34:13.511Z,96252.50
2022-09-19T05:38:27.116Z,96249.41
2022-09-19T05:42:44.668Z,96268.16
2022-09-19T05:46:59.799Z,96272.78
2022-09-19T05:51:12.900Z,96275.41
2022-09-19T05:55:27.460Z,96294.25
2022-09-19T05:59:41.164Z,96291.81
2022-09-19T06:03:54.561Z,96289.47
2022-09-19T06:08:09.476Z,96306.88
2022-09-19T06:12:23.750Z,96297.00
2022-09-19T06:16:38.209Z,96299.53
2022-09-19T06:20:58.012Z,96305.66
2022-09-19T06:25:11.275Z,96284.13
2022-09-19T06:29:24.989Z,96299.31
2022-09-19T06:33:38.319Z,96306.44
2022-09-19T06:38:02.817Z,96313.84
2022-09-19T06:42:16.093Z,96324.88
2022-09-19T06:46:29.587Z,96351.25
2022-09-19T06:50:47.155Z,96351.00
2022-09-19T06:55:00.525Z,96362.31
2022-09-19T06:59:14.206Z,96355.53
2022-09-19T07:03:27.608Z,96365.28
2022-09-19T07:07:41.971Z,96372.41
2022-09-19T07:11:58.632Z,96392.56
2022-09-19T07:16:12.038Z,96384.44
2022-09-19T07:20:27.748Z,96397.44
2022-09-19T07:24:41.071Z,96396.97
2022-09-19T07:28:56.272Z,96407.06
2022-09-19T07:33:12.276Z,96410.28
2022-09-19T07:37:28.560Z,96413.34
2022-09-19T07:41:42.423Z,96429.59
2022-09-19T07:45:55.641Z,96432.56
2022-09-19T07:50:09.052Z,96447.53
2022-09-19T07:54:22.187Z,96459.41
2022-09-19T07:58:35.978Z,96464.88
2022-09-19T08:03:03.030Z,96480.19
2022-09-19T08:07:16.368Z,96473.84
2022-09-19T08:11:29.543Z,96476.06
2022-09-19T08:15:44.952Z,96463.75
2022-09-19T08:19:58.119Z,96483.78
2022-09-19T08:24:11.636Z,96485.47
2022-09-19T08:28:24.888Z,96498.66
2022-09-19T08:32:38.583Z,96497.19
2022-09-19T08:36:51.683Z,96499.59
2022-09-19T08:41:24.047Z,96505.28
2022-09-19T08:46:07.958Z,96517.25
2022-09-19T08:50:27.838Z,96512.91
2022-09-19T08:54:45.312Z,96510.97
2022-09-19T08:59:03.611Z,96523.78
2022-09-19T09:03:23.767Z,96519.16
2022-09-19T09:07:58.455Z,96528.41
2022-09-19T09:12:22.797Z,96526.53
2022-09-19T09:17:13.841Z,96524.06
2022-09-19T09:22:05.735Z,96531.81
2022-09-19T09:26:23.927Z,96537.44
2022-09-19T09:30:42.224Z,96526.78
2022-09-19T09:35:00.364Z,96530.31
2022-09-19T09:39:29.022Z,96520.03
2022-09-19T09:44:11.877Z,96530.13
2022-09-19T09:48:36.760Z,96531.66
2022-09-19T09:53:06.610Z,96536.97
2022-09-19T09:57:44.610Z,96533.56
2022-09-19T10:02:21.440Z,96547.16
2022-09-19T10:06:47.907Z,96551.59
2022-09-19T10:15:54.332Z,96549.47
2022-09-19T10:20:17.563Z,96561.44
2022-09-19T10:24:43.970Z,96563.03
2022-09-19T10:29:04.350Z,96566.91
2022-09-19T10:33:26.730Z,96550.59
2022-09-19T10:37:42.628Z,96555.88
2022-09-19T10:41:55.803Z,96562.63
2022-09-19T10:46:16.878Z,96565.47
2022-09-19T10:50:31.281Z,96553.94
2022-09-19T10:54:45.948Z,96554.53
2022-09-19T10:59:14.791Z,96555.69
2022-09-19T11:03:31.883Z,96548.44
2022-09-19T11:07:52.496Z,96549.09
2022-09-19T11:12:07.288Z,96561.50
2022-09-19T11:16:34.019Z,96553.44
2022-09-19T11:20:53.254Z,96558.00
2022-09-19T11:25:16.953Z,96562.88
2022-09-19T11:29:55.027Z,96560.28
2022-09-19T11:34:52.584Z,96553.03
2022-09-19T11:39:49.218Z,96551.31
2022-09-19T11:44:45.470Z,96558.31
2022-09-19T11:49:17.404Z,96542.97
2022-09-19T11:54:09.432Z,96543.66
2022-09-19T11:58:44.568Z,96538.72
2022-09-19T12:03:16.815Z,96540.34
2022-09-19T12:08:04.930Z,96537.66
2022-09-19T12:12:23.783Z,96528.63
2022-09-19T12:16:41.861Z,96526.66
2022-09-19T12:20:59.002Z,96526.00
2022-09-19T12:25:21.568Z,96510.69
2022-09-19T12:29:41.456Z,96511.59
2022-09-19T12:34:09.701Z,96519.31
2022-09-19T12:38:41.899Z,96502.13
2022-09-19T12:43:24.355Z,96496.97
2022-09-19T12:47:37.357Z,96488.81
2022-09-19T12:52:03.961Z,96481.16
2022-09-19T12:56:53.931Z,96482.91
2022-09-19T13:01:34.022Z,96483.69
2022-09-19T13:06:01.391Z,96481.75
2022-09-19T13:10:39.164Z,96482.69
2022-09-19T13:14:58.106Z,96490.47
2022-09-19T13:19:31.125Z,96485.31
2022-09-19T13:23:47.822Z,96477.13
2022-09-19T13:28:19.957Z,96491.94
2022-09-19T13:32:56.121Z,96490.66
2022-09-19T13:37:44.775Z,96496.78
2022-09-19T13:41:59.993Z,96484.38
2022-09-19T13:46:21.252Z,96493.56
2022-09-19T13:50:54.756Z,96484.47
2022-09-19T13:55:32.280Z,96483.50
2022-09-19T13:59:46.013Z,96483.88
2022-09-19T14:04:22.391Z,96481.09
2022-09-19T14:13:29.030Z,96491.22
2022-09-19T14:17:44.300Z,96487.16
2022-09-19T14:21:59.143Z,96482.44
2022-09-19T14:26:15.985Z,96487.50
2022-09-19T14:31:07.543Z,96477.03
2022-09-19T14:35:41.851Z,96482.25
2022-09-19T14:40:24.235Z,96474.50
2022-09-19T14:45:03.688Z,96471.88
2022-09-19T14:49:29.416Z,96466.38
2022-09-19T14:53:43.850Z,96471.25
2022-09-19T14:57:57.944Z,96477.78
2022-09-19T15:02:27.781Z,96480.50
2022-09-19T15:06:52.630Z,96473.69
2022-09-19T15:11:10.908Z,96468.66
2022-09-19T15:15:27.802Z,96469.94
2022-09-19T15:19:45.916Z,96465.38
2022-09-19T15:24:02.026Z,96470.47
2022-09-19T15:28:28.644Z,96479.25
2022-09-19T15:32:42.741Z,96469.88
2022-09-19T15:36:57.168Z,96475.94
2022-09-19T15:41:12.804Z,96469.09
2022-09-19T15:45:31.944Z,96477.09
2022-09-19T15:49:50.376Z,96466.47
2022-09-19T15:54:16.026Z,96470.03
2022-09-19T15:58:36.780Z,96481.69
2022-09-19T16:03:01.560Z,96494.28
2022-09-19T16:07:47.821Z,96491.94
2022-09-19T16:12:01.612Z,96492.22
2022-09-19T16:16:35.788Z,96495.00
2022-09-19T16:20:55.450Z,96491.53
2022-09-19T16:25:14.808Z,96493.44
2022-09-19T16:29:31.337Z,96477.19
2022-09-19T16:33:59.067Z,96492.81
2022-09-19T16:38:25.313Z,96491.06
2022-09-19T16:42:38.493Z,96494.22
2022-09-19T16:46:57.036Z,96504.91
2022-09-19T16:51:16.939Z,96498.28
2022-09-19T16:55:42.170Z,96505.34
2022-09-19T16:59:57.214Z,96497.91
2022-09-19T17:04:18.389Z,96511.72
2022-09-19T17:08:31.670Z,96519.41
2022-09-19T17:12:45.004Z,96523.59
2022-09-19T17:16:58.269Z,96524.72
2022-09-19T17:21:15.259Z,96536.88
2022-09-19T17:25:43.348Z,96540.22
2022-09-19T17:29:57.866Z,96542.09
2022-09-19T17:34:12.553Z,96541.16
2022-09-19T17:38:27.697Z,96547.78
2022-09-19T17:42:42.420Z,96541.81
2022-09-19T17:46:55.779Z,96546.13
2022-09-19T17:51:09.126Z,96553.06
2022-09-19T17:55:22.327Z,96558.78
2022-09-19T17:59:35.284Z,96559.72
2022-09-19T18:03:48.930Z,96566.81
2022-09-19T18:08:03.482Z,96570.53
2022-09-19T18:12:18.684Z,96566.84
2022-09-19T18:16:33.004Z,96578.06
2022-09-19T18:20:58.857Z,96589.88
2022-09-19T18:25:16.625Z,96583.13
2022-09-19T18:29:33.312Z,96593.25
2022-09-19T18:33:46.641Z,96586.19
2022-09-19T18:38:00.333Z,96598.44
2022-09-19T18:42:13.426Z,96597.59
2022-09-19T18:46:27.129Z,96612.25
2022-09-19T18:50:40.628Z,96610.81
2022-09-19T18:54:53.945Z,96615.59
2022-09-19T18:59:07.118Z,96605.38
2022-09-19T19:03:20.392Z,96606.41
2022-09-19T19:07:33.771Z,96611.56
2022-09-19T19:11:50.462Z,96611.69
2022-09-19T19:16:06.949Z,96614.81
2022-09-19T19:20:21.065Z,96619.19
2022-09-19T19:24:34.075Z,96610.19
2022-09-19T19:28:47.109Z,96625.97
2022-09-19T19:33:00.302Z,96627.78
2022-09-19T19:37:13.377Z,96630.31
2022-09-19T19:41:29.560Z,96636.53
2022-09-19T19:45:42.778Z,96619.09
2022-09-19T19:49:55.894Z,96628.50
2022-09-19T19:54:15.847Z,96623.44
2022-09-19T19:58:29.822Z,96630.53
2022-09-19T20:02:43.038Z,96626.81
2022-09-19T20:06:56.483Z,96632.84
2022-09-19T20:11:14.698Z,96618.88
2022-09-19T20:15:27.846Z,96630.34
2022-09-19T20:19:40.936Z,96625.66
2022-09-19T20:23:56.637Z,96626.81
2022-09-19T20:28:09.877Z,96624.06
2022-09-19T20:32:23.038Z,96631.03
2022-09-19T20:36:38.429Z,96627.06
2022-09-19T20:40:58.938Z,96623.84
2022-09-19T20:45:12.268Z,96629.19
2022-09-19T20:49:28.328Z,96625.00
2022-09-19T20:53:41.576Z,96625.00
2022-09-19T20:57:54.763Z,96625.97
2022-09-19T21:02:07.955Z,96620.38
2022-09-19T21:06:21.359Z,96621.09
2022-09-19T21:10:37.988Z,96614.41
2022-09-19T21:14:51.111Z,96607.28
2022-09-19T21:19:04.169Z,96616.75
2022-09-19T21:23:17.564Z,96604.84
2022-09-19T21:27:30.874Z,96610.81
2022-09-19T21:31:44.015Z,96619.91
2022-09-19T21:36:02.531Z,96608.50
2022-09-19T21:40:15.910Z,96609.41
2022-09-19T21:44:30.454Z,96605.13
2022-09-19T21:48:45.763Z,96615.28
2022-09-19T21:52:58.755Z,96611.06
2022-09-19T21:57:12.017Z,96608.97
2022-09-19T22:01:29.997Z,96607.94
2022-09-19T22:05:43.432Z,96604.88
2022-09-19T22:09:56.486Z,96617.41
2022-09-19T22:14:09.852Z,96613.06
2022-09-19T22:18:23.884Z,96612.97
2022-09-19T22:22:36.990Z,96604.19
2022-09-19T22:26:50.154Z,96606.41
2022-09-19T22:31:06.505Z,96612.53
2022-09-19T22:35:19.578Z,96618.28
2022-09-19T22:39:32.610Z,96605.59
2022-09-19T22:43:45.803Z,96610.13
2022-09-19T22:47:59.464Z,96607.94
2022-09-19T22:52:12.704Z,96608.59
2022-09-19T22:56:28.922Z,96610.34
2022-09-19T23:00:42.580Z,96610.53
2022-09-19T23:04:55.860Z,96610.03
2022-09-19T23:09:19.738Z,96621.81
2022-09-19T23:13:49.014Z,96608.78
2022-09-19T23:18:02.414Z,96616.75
2022-09-19T23:22:15.860Z,96618.19
2022-09-19T23:26:29.372Z,96606.91
2022-09-19T23:30:42.419Z,96596.59
2022-09-19T23:34:55.727Z,96604.34
2022-09-19T23:39:11.212Z,96611.13
2022-09-19T23:43:24.315Z,96607.59
2022-09-19T23:47:37.328Z,96606.34
2022-09-19T23:51:53.486Z,96616.72
2022-09-19T23:56:07.541Z,96608.72
